createdAt,value
2018-04-11T00:00:11.517Z,16.32
2018-04-11T00:01:12.230Z,16.33
2018-04-11T00:02:12.942Z,16.26
2018-04-11T00:03:13.656Z,16.20
2018-04-11T00:04:14.379Z,16.29
2018-04-11T00:05:15.091Z,16.21
2018-04-11T00:06:15.803Z,16.21
2018-04-11T00:07:16.516Z,16.26
2018-04-11T00:08:17.227Z,16.28
2018-04-11T00:09:17.951Z,16.23
2018-04-11T00:10:18.663Z,16.02
2018-04-11T00:11:19.375Z,16.10
2018-04-11T00:12:20.097Z,16.12
2018-04-11T00:13:20.803Z,16.01
2018-04-11T00:14:21.517Z,16.10
2018-04-11T00:15:22.228Z,16.02
2018-04-11T00:16:22.939Z,16.05
2018-04-11T00:17:23.652Z,16.02
2018-04-11T00:18:24.364Z,16.00
2018-04-11T00:19:25.099Z,16.00
2018-04-11T00:20:25.802Z,15.92
2018-04-11T00:21:26.528Z,15.95
2018-04-11T00:22:27.242Z,16.02
2018-04-11T00:23:27.971Z,16.00
2018-04-11T00:24:28.681Z,15.97
2018-04-11T00:25:29.399Z,15.98
2018-04-11T00:26:30.106Z,15.98
2018-04-11T00:27:30.818Z,15.98
2018-04-11T00:28:31.529Z,15.95
2018-04-11T00:29:32.242Z,15.98
2018-04-11T00:30:32.954Z,16.01
2018-04-11T00:31:33.676Z,15.97
2018-04-11T00:32:34.388Z,16.00
2018-04-11T00:33:35.100Z,16.01
2018-04-11T00:34:35.812Z,15.94
2018-04-11T00:35:36.523Z,16.00
2018-04-11T00:36:37.235Z,15.92
2018-04-11T00:37:37.948Z,15.97
2018-04-11T00:38:38.663Z,15.94
2018-04-11T00:39:39.385Z,15.95
2018-04-11T00:40:40.096Z,15.91
2018-04-11T00:41:40.807Z,15.91
2018-04-11T00:42:41.520Z,15.84
2018-04-11T00:43:42.231Z,15.83
2018-04-11T00:44:42.956Z,15.86
2018-04-11T00:45:43.670Z,15.77
2018-04-11T00:46:44.383Z,15.84
2018-04-11T00:47:45.105Z,15.82
2018-04-11T00:48:45.818Z,15.70
2018-04-11T00:49:46.532Z,15.72
2018-04-11T00:50:47.244Z,15.70
2018-04-11T00:51:47.968Z,15.68
2018-04-11T00:52:48.681Z,15.70
2018-04-11T00:53:49.402Z,15.62
2018-04-11T00:54:50.117Z,15.55
2018-04-11T00:55:50.829Z,15.54
2018-04-11T00:56:51.542Z,15.57
2018-04-11T00:57:52.255Z,15.58
2018-04-11T00:58:52.971Z,15.47
2018-04-11T00:59:53.691Z,15.52
2018-04-11T01:00:54.414Z,15.35
2018-04-11T01:01:55.127Z,15.44
2018-04-11T01:02:55.839Z,15.36
2018-04-11T01:03:56.550Z,15.37
2018-04-11T01:04:57.262Z,15.44
2018-04-11T01:05:57.972Z,15.40
2018-04-11T01:06:58.686Z,15.37
2018-04-11T01:07:59.396Z,15.42
2018-04-11T01:09:00.108Z,15.29
2018-04-11T01:10:00.832Z,15.27
2018-04-11T01:11:01.548Z,15.25
2018-04-11T01:12:02.267Z,15.22
2018-04-11T01:13:02.980Z,15.19
2018-04-11T01:14:03.691Z,15.18
2018-04-11T01:15:04.406Z,15.10
2018-04-11T01:16:05.117Z,15.15
2018-04-11T01:17:05.841Z,15.19
2018-04-11T01:18:06.551Z,15.00
2018-04-11T01:19:07.262Z,15.10
2018-04-11T01:20:07.975Z,15.04
2018-04-11T01:21:08.689Z,15.06
2018-04-11T01:22:09.402Z,15.11
2018-04-11T01:23:10.115Z,14.97
2018-04-11T01:24:10.836Z,15.00
2018-04-11T01:25:11.561Z,14.94
2018-04-11T01:26:12.276Z,14.94
2018-04-11T01:27:12.997Z,14.92
2018-04-11T01:28:13.708Z,14.86
2018-04-11T01:29:14.420Z,14.89
2018-04-11T01:30:15.137Z,14.89
2018-04-11T01:31:15.859Z,14.81
2018-04-11T01:32:16.568Z,14.84
2018-04-11T01:33:17.279Z,14.77
2018-04-11T01:34:17.991Z,14.78
2018-04-11T01:35:18.703Z,14.81
2018-04-11T01:36:19.422Z,14.72
2018-04-11T01:37:20.135Z,14.81
2018-04-11T01:38:20.847Z,14.62
2018-04-11T01:39:21.557Z,14.50
2018-04-11T01:40:22.267Z,14.54
2018-04-11T01:41:22.990Z,14.45
2018-04-11T01:42:23.702Z,14.48
2018-04-11T01:43:24.413Z,14.54
2018-04-11T01:44:25.148Z,14.50
2018-04-11T01:45:25.843Z,14.44
2018-04-11T01:46:26.562Z,14.37
2018-04-11T01:47:27.274Z,14.41
2018-04-11T01:48:27.990Z,14.43
2018-04-11T01:49:28.700Z,14.41
2018-04-11T01:50:29.430Z,14.37
2018-04-11T01:51:30.142Z,14.37
2018-04-11T01:52:30.855Z,14.26
2018-04-11T01:53:31.569Z,14.37
2018-04-11T01:54:32.282Z,14.43
2018-04-11T01:55:32.996Z,14.35
2018-04-11T01:56:33.966Z,14.29
2018-04-11T01:57:34.677Z,14.32
2018-04-11T01:58:35.390Z,14.20
2018-04-11T01:59:36.109Z,14.20
2018-04-11T02:00:36.828Z,14.18
2018-04-11T02:01:37.542Z,14.22
2018-04-11T02:02:38.254Z,14.32
2018-04-11T02:03:38.980Z,14.18
2018-04-11T02:04:39.696Z,14.20
2018-04-11T02:05:40.417Z,14.17
2018-04-11T02:06:41.129Z,14.22
2018-04-11T02:07:41.842Z,14.23
2018-04-11T02:08:42.556Z,14.25
2018-04-11T02:09:43.328Z,14.26
2018-04-11T02:10:43.993Z,14.12
2018-04-11T02:11:44.705Z,14.11
2018-04-11T02:12:45.418Z,14.15
2018-04-11T02:13:46.143Z,14.00
2018-04-11T02:14:46.853Z,14.11
2018-04-11T02:15:47.577Z,14.05
2018-04-11T02:16:48.290Z,14.03
2018-04-11T02:17:49.016Z,14.08
2018-04-11T02:18:49.729Z,14.03
2018-04-11T02:19:50.443Z,13.93
2018-04-11T02:20:51.158Z,13.97
2018-04-11T02:21:51.873Z,13.90
2018-04-11T02:22:52.599Z,13.90
2018-04-11T02:23:53.312Z,13.92
2018-04-11T02:24:54.022Z,13.90
2018-04-11T02:25:54.735Z,13.97
2018-04-11T02:26:55.448Z,13.93
2018-04-11T02:27:56.172Z,13.89
2018-04-11T02:28:56.886Z,13.89
2018-04-11T02:29:57.599Z,13.78
2018-04-11T02:30:58.313Z,13.77
2018-04-11T02:31:59.040Z,13.75
2018-04-11T02:32:59.742Z,13.79
2018-04-11T02:34:00.466Z,13.77
2018-04-11T02:35:01.179Z,13.78
2018-04-11T02:36:01.894Z,13.70
2018-04-11T02:37:02.616Z,13.72
2018-04-11T02:38:03.320Z,13.63
2018-04-11T02:39:04.033Z,13.60
2018-04-11T02:40:04.758Z,13.67
2018-04-11T02:41:05.469Z,13.56
2018-04-11T02:42:06.186Z,13.62
2018-04-11T02:43:06.892Z,13.56
2018-04-11T02:44:07.603Z,13.62
2018-04-11T02:45:08.323Z,13.50
2018-04-11T02:46:09.045Z,13.59
2018-04-11T02:47:09.753Z,13.41
2018-04-11T02:48:10.465Z,13.50
2018-04-11T02:49:11.188Z,13.50
2018-04-11T02:50:11.913Z,13.33
2018-04-11T02:51:12.626Z,13.38
2018-04-11T02:52:13.340Z,13.37
2018-04-11T02:53:14.053Z,13.38
2018-04-11T02:54:14.776Z,13.23
2018-04-11T02:55:15.499Z,13.31
2018-04-11T02:56:16.210Z,13.25
2018-04-11T02:57:16.937Z,13.13
2018-04-11T02:58:17.649Z,13.18
2018-04-11T02:59:18.361Z,13.20
2018-04-11T03:00:19.074Z,13.15
2018-04-11T03:01:19.786Z,13.00
2018-04-11T03:02:20.497Z,13.11
2018-04-11T03:03:21.224Z,13.03
2018-04-11T03:04:21.936Z,13.09
2018-04-11T03:05:22.661Z,13.03
2018-04-11T03:06:23.374Z,12.94
2018-04-11T03:07:24.087Z,12.90
2018-04-11T03:08:24.812Z,12.90
2018-04-11T03:09:25.553Z,12.79
2018-04-11T03:10:26.245Z,12.86
2018-04-11T03:11:26.958Z,12.86
2018-04-11T03:12:27.671Z,12.87
2018-04-11T03:13:28.384Z,12.70
2018-04-11T03:14:29.098Z,12.78
2018-04-11T03:15:29.812Z,12.68
2018-04-11T03:16:30.535Z,12.70
2018-04-11T03:17:31.248Z,12.70
2018-04-11T03:18:31.970Z,12.68
2018-04-11T03:19:32.682Z,12.68
2018-04-11T03:20:33.394Z,12.65
2018-04-11T03:21:34.107Z,12.61
2018-04-11T03:22:34.820Z,12.60
2018-04-11T03:23:35.542Z,12.57
2018-04-11T03:24:36.254Z,12.55
2018-04-11T03:25:36.981Z,12.49
2018-04-11T03:26:37.706Z,12.53
2018-04-11T03:27:38.414Z,12.54
2018-04-11T03:28:39.127Z,12.61
2018-04-11T03:29:39.838Z,12.61
2018-04-11T03:30:40.552Z,12.61
2018-04-11T03:31:41.263Z,12.60
2018-04-11T03:32:41.976Z,12.54
2018-04-11T03:33:42.688Z,12.54
2018-04-11T03:34:43.404Z,12.60
2018-04-11T03:35:44.125Z,12.54
2018-04-11T03:36:44.850Z,12.47
2018-04-11T03:37:45.563Z,12.53
2018-04-11T03:38:46.276Z,12.46
2018-04-11T03:39:46.988Z,12.45
2018-04-11T03:40:47.710Z,12.42
2018-04-11T03:41:48.421Z,12.42
2018-04-11T03:42:49.145Z,12.47
2018-04-11T03:43:49.858Z,12.53
2018-04-11T03:44:50.584Z,12.46
2018-04-11T03:45:51.298Z,12.47
2018-04-11T03:46:52.011Z,12.39
2018-04-11T03:47:52.736Z,12.36
2018-04-11T03:48:53.447Z,12.37
2018-04-11T03:49:54.159Z,12.31
2018-04-11T03:50:54.869Z,12.28
2018-04-11T03:51:55.580Z,12.27
2018-04-11T03:52:56.294Z,12.35
2018-04-11T03:53:57.003Z,12.32
2018-04-11T03:54:57.726Z,12.35
2018-04-11T03:55:58.448Z,12.21
2018-04-11T03:56:59.161Z,12.20
2018-04-11T03:57:59.872Z,12.24
2018-04-11T03:59:00.602Z,12.13
2018-04-11T04:00:01.313Z,12.18
2018-04-11T04:01:02.026Z,12.24
2018-04-11T04:02:02.751Z,12.28
2018-04-11T04:03:03.461Z,12.18
2018-04-11T04:04:04.185Z,12.18
2018-04-11T04:05:04.897Z,12.15
2018-04-11T04:06:05.608Z,12.17
2018-04-11T04:07:06.323Z,12.20
2018-04-11T04:08:07.032Z,12.18
2018-04-11T04:09:07.745Z,12.06
2018-04-11T04:10:08.460Z,12.06
2018-04-11T04:11:09.167Z,12.10
2018-04-11T04:12:09.880Z,11.99
2018-04-11T04:13:10.593Z,12.07
2018-04-11T04:14:11.320Z,12.02
2018-04-11T04:15:12.034Z,12.00
2018-04-11T04:16:12.748Z,11.97
2018-04-11T04:17:13.461Z,11.94
2018-04-11T04:18:14.172Z,11.99
2018-04-11T04:19:14.885Z,11.97
2018-04-11T04:20:15.597Z,11.88
2018-04-11T04:21:16.310Z,11.94
2018-04-11T04:22:17.023Z,11.95
2018-04-11T04:23:17.739Z,11.87
2018-04-11T04:24:18.461Z,11.84
2018-04-11T04:25:19.175Z,11.88
2018-04-11T04:26:19.885Z,11.90
2018-04-11T04:27:20.611Z,11.83
2018-04-11T04:28:21.323Z,11.88
2018-04-11T04:29:22.034Z,11.88
2018-04-11T04:30:22.757Z,11.87
2018-04-11T04:31:23.457Z,11.83
2018-04-11T04:32:24.168Z,11.86
2018-04-11T04:33:24.894Z,11.83
2018-04-11T04:34:25.607Z,11.83
2018-04-11T04:35:26.331Z,11.81
2018-04-11T04:36:27.057Z,11.78
2018-04-11T04:37:27.782Z,11.83
2018-04-11T04:38:28.501Z,11.78
2018-04-11T04:39:29.227Z,11.78
2018-04-11T04:40:29.949Z,11.75
2018-04-11T04:41:30.663Z,11.62
2018-04-11T04:42:31.376Z,11.72
2018-04-11T04:43:32.155Z,11.55
2018-04-11T04:44:32.816Z,11.60
2018-04-11T04:45:33.534Z,11.54
2018-04-11T04:46:34.242Z,11.55
2018-04-11T04:47:34.956Z,11.52
2018-04-11T04:48:35.672Z,11.35
2018-04-11T04:49:36.389Z,11.41
2018-04-11T04:50:37.106Z,11.45
2018-04-11T04:51:37.822Z,11.43
2018-04-11T04:52:38.537Z,11.43
2018-04-11T04:53:39.255Z,11.43
2018-04-11T04:54:39.971Z,11.37
2018-04-11T04:55:40.688Z,11.36
2018-04-11T04:56:41.404Z,11.41
2018-04-11T04:57:42.130Z,11.37
2018-04-11T04:58:42.845Z,11.43
2018-04-11T04:59:43.560Z,11.32
2018-04-11T05:00:44.274Z,11.32
2018-04-11T05:01:44.992Z,11.40
2018-04-11T05:02:45.710Z,11.32
2018-04-11T05:03:46.425Z,11.30
2018-04-11T05:04:47.139Z,11.32
2018-04-11T05:05:47.871Z,11.35
2018-04-11T05:06:48.584Z,11.36
2018-04-11T05:07:49.299Z,11.35
2018-04-11T05:08:50.016Z,11.35
2018-04-11T05:09:50.732Z,11.32
2018-04-11T05:10:51.448Z,11.29
2018-04-11T05:11:52.163Z,11.37
2018-04-11T05:12:52.878Z,11.43
2018-04-11T05:13:53.595Z,11.29
2018-04-11T05:14:54.310Z,11.27
2018-04-11T05:15:55.039Z,11.26
2018-04-11T05:16:55.768Z,11.29
2018-04-11T05:17:56.496Z,11.37
2018-04-11T05:18:57.212Z,11.33
2018-04-11T05:19:57.933Z,11.35
2018-04-11T05:20:58.645Z,11.32
2018-04-11T05:21:59.361Z,11.30
2018-04-11T05:23:00.076Z,11.30
2018-04-11T05:24:00.792Z,11.35
2018-04-11T05:25:01.510Z,11.36
2018-04-11T05:26:02.240Z,11.25
2018-04-11T05:27:02.970Z,11.23
2018-04-11T05:28:03.699Z,11.29
2018-04-11T05:29:04.429Z,11.19
2018-04-11T05:30:05.147Z,11.26
2018-04-11T05:31:05.862Z,11.23
2018-04-11T05:32:06.579Z,11.17
2018-04-11T05:33:07.297Z,11.23
2018-04-11T05:34:08.013Z,11.19
2018-04-11T05:35:08.733Z,11.25
2018-04-11T05:36:09.462Z,11.19
2018-04-11T05:37:10.182Z,11.23
2018-04-11T05:38:10.899Z,11.32
2018-04-11T05:39:11.614Z,11.35
2018-04-11T05:40:12.343Z,11.29
2018-04-11T05:41:13.072Z,11.23
2018-04-11T05:42:13.803Z,11.32
2018-04-11T05:43:14.531Z,11.32
2018-04-11T05:44:15.249Z,11.37
2018-04-11T05:45:15.965Z,11.33
2018-04-11T05:46:16.683Z,11.35
2018-04-11T05:47:17.407Z,11.32
2018-04-11T05:48:18.124Z,11.32
2018-04-11T05:49:18.837Z,11.33
2018-04-11T05:50:19.554Z,11.36
2018-04-11T05:51:20.285Z,11.43
2018-04-11T05:52:21.002Z,11.44
2018-04-11T05:53:21.771Z,11.40
2018-04-11T05:54:22.437Z,11.35
2018-04-11T05:55:23.154Z,11.37
2018-04-11T05:56:23.874Z,11.45
2018-04-11T05:57:24.588Z,11.47
2018-04-11T05:58:25.304Z,11.36
2018-04-11T05:59:26.021Z,11.44
2018-04-11T06:00:26.739Z,11.48
2018-04-11T06:01:27.459Z,11.47
2018-04-11T06:02:28.176Z,11.51
2018-04-11T06:03:28.906Z,11.52
2018-04-11T06:04:29.623Z,11.55
2018-04-11T06:05:30.343Z,11.65
2018-04-11T06:06:31.064Z,11.60
2018-04-11T06:07:31.783Z,11.69
2018-04-11T06:08:32.500Z,11.68
2018-04-11T06:09:33.221Z,11.66
2018-04-11T06:10:33.940Z,11.75
2018-04-11T06:11:34.661Z,11.73
2018-04-11T06:12:35.380Z,11.77
2018-04-11T06:13:36.097Z,11.81
2018-04-11T06:14:36.815Z,11.95
2018-04-11T06:15:37.546Z,11.99
2018-04-11T06:16:38.267Z,12.06
2018-04-11T06:17:38.988Z,12.21
2018-04-11T06:18:39.706Z,12.22
2018-04-11T06:19:40.426Z,12.35
2018-04-11T06:20:41.162Z,12.37
2018-04-11T06:21:41.880Z,12.46
2018-04-11T06:22:42.603Z,12.50
2018-04-11T06:23:43.322Z,12.61
2018-04-11T06:24:44.038Z,12.64
2018-04-11T06:25:44.757Z,12.79
2018-04-11T06:26:45.478Z,12.86
2018-04-11T06:27:46.197Z,12.98
2018-04-11T06:28:46.916Z,13.01
2018-04-11T06:29:47.634Z,13.12
2018-04-11T06:30:48.368Z,13.33
2018-04-11T06:31:49.099Z,13.44
2018-04-11T06:32:49.811Z,13.50
2018-04-11T06:33:50.531Z,13.71
2018-04-11T06:34:51.264Z,13.75
2018-04-11T06:35:51.985Z,13.77
2018-04-11T06:36:52.709Z,13.79
2018-04-11T06:37:53.429Z,13.92
2018-04-11T06:38:54.188Z,13.96
2018-04-11T06:39:54.873Z,14.12
2018-04-11T06:40:55.595Z,14.28
2018-04-11T06:41:56.317Z,14.41
2018-04-11T06:42:57.041Z,14.53
2018-04-11T06:43:57.763Z,14.50
2018-04-11T06:44:58.487Z,14.54
2018-04-11T06:45:59.225Z,14.66
2018-04-11T06:46:59.946Z,14.86
2018-04-11T06:48:00.672Z,14.94
2018-04-11T06:49:01.405Z,15.14
2018-04-11T06:50:02.131Z,15.18
2018-04-11T06:51:02.852Z,15.42
2018-04-11T06:52:03.572Z,15.54
2018-04-11T06:53:04.295Z,15.42
2018-04-11T06:54:05.017Z,15.62
2018-04-11T06:55:05.755Z,15.64
2018-04-11T06:56:06.491Z,15.61
2018-04-11T06:57:07.227Z,15.55
2018-04-11T06:58:07.959Z,15.47
2018-04-11T06:59:08.686Z,15.57
2018-04-11T07:00:09.427Z,15.65
2018-04-11T07:01:10.161Z,15.54
2018-04-11T07:02:10.899Z,15.59
2018-04-11T07:03:11.633Z,15.76
2018-04-11T07:04:12.357Z,15.73
2018-04-11T07:05:13.081Z,15.73
2018-04-11T07:06:13.804Z,15.67
2018-04-11T07:07:14.529Z,15.80
2018-04-11T07:08:15.252Z,15.68
2018-04-11T07:09:15.976Z,15.70
2018-04-11T07:10:16.700Z,15.80
2018-04-11T07:11:17.437Z,16.00
2018-04-11T07:12:18.161Z,16.02
2018-04-11T07:13:18.887Z,16.23
2018-04-11T07:14:19.611Z,16.33
2018-04-11T07:15:20.336Z,16.35
2018-04-11T07:16:21.062Z,16.43
2018-04-11T07:17:21.791Z,16.51
2018-04-11T07:18:22.519Z,16.57
2018-04-11T07:19:23.244Z,16.68
2018-04-11T07:20:23.984Z,16.65
2018-04-11T07:21:24.727Z,16.60
2018-04-11T07:22:25.450Z,16.56
2018-04-11T07:23:26.176Z,16.50
2018-04-11T07:24:26.905Z,16.36
2018-04-11T07:25:27.635Z,16.38
2018-04-11T07:26:28.358Z,16.66
2018-04-11T07:27:29.089Z,16.81
2018-04-11T07:28:29.822Z,16.84
2018-04-11T07:29:30.550Z,17.02
2018-04-11T07:30:31.277Z,17.09
2018-04-11T07:31:32.008Z,17.23
2018-04-11T07:32:32.738Z,17.29
2018-04-11T07:33:33.469Z,17.34
2018-04-11T07:34:34.201Z,17.44
2018-04-11T07:35:34.932Z,17.51
2018-04-11T07:36:35.663Z,17.39
2018-04-11T07:37:36.395Z,17.22
2018-04-11T07:38:37.129Z,17.12
2018-04-11T07:39:37.870Z,17.38
2018-04-11T07:40:38.601Z,17.22
2018-04-11T07:41:39.333Z,17.30
2018-04-11T07:42:40.066Z,17.57
2018-04-11T07:43:40.802Z,17.46
2018-04-11T07:44:41.548Z,17.38
2018-04-11T07:45:42.278Z,17.33
2018-04-11T07:46:43.010Z,17.46
2018-04-11T07:47:43.743Z,17.56
2018-04-11T07:48:44.475Z,17.20
2018-04-11T07:49:45.209Z,17.52
2018-04-11T07:50:45.943Z,17.86
2018-04-11T07:51:46.678Z,18.01
2018-04-11T07:52:47.411Z,18.29
2018-04-11T07:53:48.146Z,18.11
2018-04-11T07:54:48.881Z,18.18
2018-04-11T07:55:49.615Z,18.34
2018-04-11T07:56:50.347Z,18.35
2018-04-11T07:57:51.078Z,18.75
2018-04-11T07:58:51.811Z,19.04
2018-04-11T07:59:52.558Z,18.84
2018-04-11T08:00:53.276Z,18.95
2018-04-11T08:01:54.007Z,18.81
2018-04-11T08:02:54.752Z,18.66
2018-04-11T08:03:55.484Z,18.68
2018-04-11T08:04:56.216Z,18.86
2018-04-11T08:05:56.950Z,19.15
2018-04-11T08:06:57.682Z,19.26
2018-04-11T08:07:58.417Z,19.47
2018-04-11T08:08:59.162Z,19.56
2018-04-11T08:09:59.908Z,19.51
2018-04-11T08:11:00.637Z,19.62
2018-04-11T08:12:01.381Z,19.85
2018-04-11T08:13:02.120Z,19.88
2018-04-11T08:14:02.860Z,19.89
2018-04-11T08:15:03.593Z,19.92
2018-04-11T08:16:04.326Z,19.45
2018-04-11T08:17:05.061Z,19.81
2018-04-11T08:18:05.830Z,19.92
2018-04-11T08:19:06.539Z,20.07
2018-04-11T08:20:07.273Z,20.13
2018-04-11T08:21:08.008Z,19.88
2018-04-11T08:22:08.740Z,20.34
2018-04-11T08:23:09.475Z,20.81
2018-04-11T08:24:10.207Z,21.02
2018-04-11T08:25:10.941Z,21.32
2018-04-11T08:26:11.676Z,21.21
2018-04-11T08:27:12.410Z,21.64
2018-04-11T08:28:13.145Z,21.42
2018-04-11T08:29:13.880Z,21.77
2018-04-11T08:30:14.615Z,21.73
2018-04-11T08:31:15.350Z,21.15
2018-04-11T08:32:16.084Z,20.78
2018-04-11T08:33:16.819Z,20.44
2018-04-11T08:34:17.555Z,20.52
2018-04-11T08:35:18.291Z,20.39
2018-04-11T08:36:19.024Z,20.93
2018-04-11T08:37:19.757Z,21.36
2018-04-11T08:38:20.503Z,21.40
2018-04-11T08:39:21.241Z,21.42
2018-04-11T08:40:21.976Z,21.85
2018-04-11T08:41:22.711Z,21.93
2018-04-11T08:42:23.445Z,22.30
2018-04-11T08:43:24.194Z,22.69
2018-04-11T08:44:24.929Z,22.90
2018-04-11T08:45:25.666Z,23.25
2018-04-11T08:46:26.400Z,23.23
2018-04-11T08:47:27.136Z,23.63
2018-04-11T08:48:27.873Z,23.66
2018-04-11T08:49:28.607Z,24.02
2018-04-11T08:50:29.343Z,24.11
2018-04-11T08:51:30.094Z,23.81
2018-04-11T08:52:30.883Z,23.87
2018-04-11T08:53:31.565Z,23.77
2018-04-11T08:54:32.300Z,23.56
2018-04-11T08:55:33.047Z,23.78
2018-04-11T08:56:33.784Z,23.77
2018-04-11T08:57:34.519Z,23.55
2018-04-11T08:58:35.253Z,23.58
2018-04-11T08:59:35.993Z,23.77
2018-04-11T09:00:36.728Z,24.11
2018-04-11T09:01:37.468Z,23.31
2018-04-11T09:02:38.201Z,22.50
2018-04-11T09:03:38.951Z,22.65
2018-04-11T09:04:39.704Z,22.85
2018-04-11T09:05:40.441Z,22.84
2018-04-11T09:06:41.177Z,22.59
2018-04-11T09:07:41.915Z,22.53
2018-04-11T09:08:42.650Z,22.00
2018-04-11T09:09:43.385Z,21.76
2018-04-11T09:10:44.122Z,21.39
2018-04-11T09:11:44.856Z,21.85
2018-04-11T09:12:45.593Z,21.11
2018-04-11T09:13:46.329Z,21.09
2018-04-11T09:14:47.078Z,20.65
2018-04-11T09:15:47.810Z,20.80
2018-04-11T09:16:48.545Z,20.77
2018-04-11T09:17:49.278Z,20.56
2018-04-11T09:18:50.014Z,21.05
2018-04-11T09:19:50.762Z,21.51
2018-04-11T09:20:51.512Z,22.07
2018-04-11T09:21:52.248Z,22.63
2018-04-11T09:22:52.983Z,23.06
2018-04-11T09:23:53.732Z,23.27
2018-04-11T09:24:54.469Z,23.65
2018-04-11T09:25:55.204Z,23.61
2018-04-11T09:26:55.939Z,24.03
2018-04-11T09:27:56.676Z,23.95
2018-04-11T09:28:57.412Z,24.02
2018-04-11T09:29:58.160Z,23.95
2018-04-11T09:30:58.893Z,23.81
2018-04-11T09:31:59.647Z,23.36
2018-04-11T09:33:00.390Z,22.83
2018-04-11T09:34:01.096Z,21.75
2018-04-11T09:35:01.830Z,21.70
2018-04-11T09:36:02.580Z,21.20
2018-04-11T09:37:03.311Z,21.42
2018-04-11T09:38:04.048Z,21.62
2018-04-11T09:39:04.782Z,21.95
2018-04-11T09:40:05.530Z,22.44
2018-04-11T09:41:06.267Z,22.60
2018-04-11T09:42:07.015Z,23.31
2018-04-11T09:43:07.751Z,23.61
2018-04-11T09:44:08.486Z,24.21
2018-04-11T09:45:09.223Z,23.95
2018-04-11T09:46:09.972Z,24.14
2018-04-11T09:47:10.722Z,23.73
2018-04-11T09:48:11.469Z,24.28
2018-04-11T09:49:12.223Z,24.42
2018-04-11T09:50:12.974Z,24.69
2018-04-11T09:51:13.709Z,24.24
2018-04-11T09:52:14.450Z,24.65
2018-04-11T09:53:15.193Z,24.40
2018-04-11T09:54:15.939Z,24.66
2018-04-11T09:55:16.683Z,24.48
2018-04-11T09:56:17.434Z,24.42
2018-04-11T09:57:18.178Z,24.85
2018-04-11T09:58:18.930Z,24.47
2018-04-11T09:59:19.689Z,24.76
2018-04-11T10:00:20.441Z,24.91
2018-04-11T10:01:21.178Z,24.89
2018-04-11T10:02:21.925Z,25.13
2018-04-11T10:03:22.675Z,25.07
2018-04-11T10:04:23.427Z,25.06
2018-04-11T10:05:24.173Z,24.86
2018-04-11T10:06:24.935Z,25.08
2018-04-11T10:07:25.692Z,25.04
2018-04-11T10:08:26.438Z,25.29
2018-04-11T10:09:27.180Z,25.70
2018-04-11T10:10:27.940Z,25.43
2018-04-11T10:11:28.701Z,25.65
2018-04-11T10:12:29.450Z,26.05
2018-04-11T10:13:30.196Z,26.78
2018-04-11T10:14:30.944Z,26.95
2018-04-11T10:15:31.688Z,26.81
2018-04-11T10:16:32.448Z,26.23
2018-04-11T10:17:33.190Z,25.96
2018-04-11T10:18:33.939Z,25.17
2018-04-11T10:19:34.684Z,24.99
2018-04-11T10:20:35.428Z,25.23
2018-04-11T10:21:36.177Z,25.68
2018-04-11T10:22:36.930Z,26.05
2018-04-11T10:23:37.673Z,26.74
2018-04-11T10:24:38.420Z,25.14
2018-04-11T10:25:39.165Z,25.32
2018-04-11T10:26:39.909Z,25.65
2018-04-11T10:27:40.652Z,25.88
2018-04-11T10:28:41.396Z,25.70
2018-04-11T10:29:42.138Z,25.77
2018-04-11T10:30:42.884Z,26.02
2018-04-11T10:31:43.632Z,25.41
2018-04-11T10:32:44.384Z,24.96
2018-04-11T10:33:45.141Z,24.53
2018-04-11T10:34:45.884Z,24.92
2018-04-11T10:35:46.628Z,25.10
2018-04-11T10:36:47.372Z,25.08
2018-04-11T10:37:48.116Z,24.66
2018-04-11T10:38:48.859Z,24.54
2018-04-11T10:39:49.667Z,24.92
2018-04-11T10:40:50.351Z,25.25
2018-04-11T10:41:51.096Z,25.40
2018-04-11T10:42:51.842Z,25.36
2018-04-11T10:43:52.585Z,25.18
2018-04-11T10:44:53.327Z,24.92
2018-04-11T10:45:54.072Z,24.77
2018-04-11T10:46:54.818Z,23.46
2018-04-11T10:47:55.561Z,22.83
2018-04-11T10:48:56.303Z,23.27
2018-04-11T10:49:57.042Z,23.08
2018-04-11T10:50:57.777Z,22.98
2018-04-11T10:51:58.512Z,22.45
2018-04-11T10:52:59.246Z,22.48
2018-04-11T10:53:59.994Z,22.44
2018-04-11T10:55:00.729Z,22.36
2018-04-11T10:56:01.462Z,22.10
2018-04-11T10:57:02.195Z,21.98
2018-04-11T10:58:02.926Z,22.02
2018-04-11T10:59:03.674Z,22.00
2018-04-11T11:00:04.405Z,21.82
2018-04-11T11:01:05.151Z,21.92
2018-04-11T11:02:05.883Z,21.92
2018-04-11T11:03:06.618Z,22.65
2018-04-11T11:04:07.366Z,22.48
2018-04-11T11:05:08.098Z,22.80
2018-04-11T11:06:08.833Z,22.66
2018-04-11T11:07:09.573Z,22.51
2018-04-11T11:08:10.314Z,22.44
2018-04-11T11:09:11.060Z,21.95
2018-04-11T11:10:11.792Z,22.13
2018-04-11T11:11:12.525Z,21.77
2018-04-11T11:12:13.255Z,21.76
2018-04-11T11:13:14.002Z,21.64
2018-04-11T11:14:14.733Z,21.73
2018-04-11T11:15:15.465Z,21.80
2018-04-11T11:16:16.194Z,21.58
2018-04-11T11:17:16.925Z,21.95
2018-04-11T11:18:17.659Z,22.15
2018-04-11T11:19:18.389Z,22.10
2018-04-11T11:20:19.121Z,22.02
2018-04-11T11:21:19.864Z,22.08
2018-04-11T11:22:20.596Z,22.51
2018-04-11T11:23:21.339Z,22.50
2018-04-11T11:24:22.070Z,22.63
2018-04-11T11:25:22.803Z,22.94
2018-04-11T11:26:23.551Z,23.25
2018-04-11T11:27:24.293Z,23.43
2018-04-11T11:28:25.045Z,24.14
2018-04-11T11:29:25.778Z,24.54
2018-04-11T11:30:26.507Z,24.39
2018-04-11T11:31:27.243Z,23.96
2018-04-11T11:32:27.972Z,24.54
2018-04-11T11:33:28.706Z,24.55
2018-04-11T11:34:29.441Z,24.39
2018-04-11T11:35:30.172Z,24.11
2018-04-11T11:36:30.907Z,23.47
2018-04-11T11:37:31.652Z,23.02
2018-04-11T11:38:32.384Z,22.76
2018-04-11T11:39:33.132Z,22.62
2018-04-11T11:40:33.861Z,22.11
2018-04-11T11:41:34.593Z,22.35
2018-04-11T11:42:35.334Z,22.11
2018-04-11T11:43:36.081Z,22.00
2018-04-11T11:44:36.811Z,21.87
2018-04-11T11:45:37.543Z,21.75
2018-04-11T11:46:38.272Z,21.76
2018-04-11T11:47:39.002Z,21.77
2018-04-11T11:48:39.743Z,21.69
2018-04-11T11:49:40.471Z,21.57
2018-04-11T11:50:41.202Z,21.35
2018-04-11T11:51:41.930Z,21.51
2018-04-11T11:52:42.660Z,21.36
2018-04-11T11:53:43.389Z,21.30
2018-04-11T11:54:44.118Z,21.46
2018-04-11T11:55:44.841Z,21.21
2018-04-11T11:56:45.570Z,21.21
2018-04-11T11:57:46.298Z,21.09
2018-04-11T11:58:47.044Z,21.03
2018-04-11T11:59:47.781Z,21.12
2018-04-11T12:00:48.509Z,20.99
2018-04-11T12:01:49.236Z,20.84
2018-04-11T12:02:49.978Z,20.72
2018-04-11T12:03:50.720Z,20.55
2018-04-11T12:04:51.462Z,20.65
2018-04-11T12:05:52.187Z,20.60
2018-04-11T12:06:52.917Z,20.51
2018-04-11T12:07:53.645Z,20.60
2018-04-11T12:08:54.375Z,20.58
2018-04-11T12:09:55.103Z,20.74
2018-04-11T12:10:55.829Z,20.95
2018-04-11T12:11:56.599Z,21.17
2018-04-11T12:12:57.289Z,21.32
2018-04-11T12:13:58.017Z,21.30
2018-04-11T12:14:58.745Z,21.17
2018-04-11T12:15:59.476Z,21.15
2018-04-11T12:17:00.221Z,21.09
2018-04-11T12:18:00.943Z,21.12
2018-04-11T12:19:01.689Z,21.05
2018-04-11T12:20:02.427Z,21.06
2018-04-11T12:21:03.155Z,20.82
2018-04-11T12:22:03.884Z,20.77
2018-04-11T12:23:04.614Z,20.72
2018-04-11T12:24:05.356Z,20.59
2018-04-11T12:25:06.095Z,20.60
2018-04-11T12:26:06.867Z,20.37
2018-04-11T12:27:07.542Z,20.31
2018-04-11T12:28:08.274Z,20.10
2018-04-11T12:29:09.002Z,19.95
2018-04-11T12:30:09.735Z,19.74
2018-04-11T12:31:10.473Z,19.66
2018-04-11T12:32:11.212Z,19.66
2018-04-11T12:33:11.954Z,19.51
2018-04-11T12:34:12.680Z,19.55
2018-04-11T12:35:13.408Z,19.63
2018-04-11T12:36:14.136Z,19.51
2018-04-11T12:37:14.861Z,19.52
2018-04-11T12:38:15.587Z,19.54
2018-04-11T12:39:16.319Z,19.62
2018-04-11T12:40:17.044Z,19.63
2018-04-11T12:41:17.771Z,19.67
2018-04-11T12:42:18.515Z,19.64
2018-04-11T12:43:19.243Z,19.69
2018-04-11T12:44:19.970Z,19.76
2018-04-11T12:45:20.697Z,19.81
2018-04-11T12:46:21.428Z,19.92
2018-04-11T12:47:22.153Z,19.89
2018-04-11T12:48:22.883Z,19.92
2018-04-11T12:49:23.612Z,20.10
2018-04-11T12:50:24.344Z,20.39
2018-04-11T12:51:25.074Z,20.41
2018-04-11T12:52:25.808Z,20.74
2018-04-11T12:53:26.534Z,20.62
2018-04-11T12:54:27.263Z,20.63
2018-04-11T12:55:28.007Z,20.70
2018-04-11T12:56:28.739Z,20.82
2018-04-11T12:57:29.470Z,21.05
2018-04-11T12:58:30.228Z,21.46
2018-04-11T12:59:30.987Z,21.79
2018-04-11T13:00:31.670Z,21.82
2018-04-11T13:01:32.402Z,21.77